Aérodrome :
LOGIN :

S'inscrire | Disclaimer

   EN    FR    IT 

 










Légende :    VFR   VFR Marginal   IFR   IFR Intensif   IFR Très Intensif
Visi : 
Plafond : 
>= 8 km
>= 3000ft
5 à 8 km
1000 à 3000 ft
1500m à 5 km
500 à 1000 ft
800 à 1500m
200 à 500 ft
< 800m
< 200 ft
Symboles :   Orages  Brouillard  Fortes neiges  Fortes précipitations  Vent > 20 kt
SIGMETs :   Divers  Orages  Givrage  Turbulence  Onde Orograph.  Cendres Volcan.






- Altitude de l'aérodrome : 1416 ft
- Code IATA : ZRH


LSZH - Zurich

DERNIER METAR :
  • 230150Z AUTO VRB02KT 9999 BKN045 18/15 Q1022 NOSIG

METARs EXPIRÉS :
  • 230120Z AUTO 32003KT 9999 SCT045 SCT050 BKN070 18/15 Q1022 NOSIG
  • 230050Z AUTO VRB01KT 9999 SCT044 BKN049 BKN065 19/15 Q1022 NOSIG
  • 230020Z AUTO VRB01KT 9999 SCT045 BKN050 BKN060 19/15 Q1022 NOSIG
  • 222350Z AUTO VRB01KT 9999 BKN045 19/14 Q1022 NOSIG
  • 222320Z AUTO 31004KT 9999 BKN047 19/15 Q1022 NOSIG
  • 222250Z AUTO 33004KT 290V350 9999 FEW048 SCT055 19/16 Q1022 NOSIG
  • 222220Z AUTO 33003KT 9999 BKN049 20/16 Q1022 NOSIG
  • 222150Z AUTO 03002KT 9999 BKN050 20/17 Q1022 NOSIG
  • 222120Z VRB01KT 9999 BKN050 20/17 Q1022 NOSIG

TAF TAF LSZH
Valide du 23 à 00h jusqu'au 24 à 06h UTC


222325Z 2300/2406 VRB02KT 9999 SCT050 TX26/2315Z TN17/2304Z TN16/2404Z
BECMG 2311/2314 31008KT
BECMG 2317/2320 VRB02KT
PROB30
TEMPO 2318/2322 FEW050TCU
ATIS : +41 43 816 2295 (DEP) +41 43 816 2294 (ARR)



MET'MAP, la Météo Aéronautique d'un coup d'oeil ! - Copyright ORBIFLY Décembre 2007 - Disclaimer

ORBIFLY MET'MAP TEAM :

Programmation & Développement : Alexandra Zaïnal
Sur une idée originale de : Baudouin d'Aumeries
Soutien technique & logistique : Manuel Goepfert
Assistance : Marc-Olivier Méhu




SOURCES & CREDITS :

   NOAA